This is the latest recevied weather packets stored in our database for station/object VK5TRM-14. If no packets are shown the sender has not sent any weather packets the latest 1 day(s).
| Time | Temp. | Humidity | Pressure | Rain* | Wind** | Luminosity | Snow |
|---|---|---|---|---|---|---|---|
| 1778097605 | 8.89° C | 76% | 1027 hPa | 0 mm | - | - | - |
| 1778094905 | 8.33° C | 76% | 1026.7 hPa | 0 mm | - | - | - |
| 1778094005 | 8.89° C | 79% | 1026.4 hPa | 0 mm | - | - | - |
| 1778089505 | 7.78° C | 77% | 1026.1 hPa | 0 mm | - | - | - |
| 1778088605 | 8.89° C | 74% | 1026.1 hPa | 0 mm | - | - | - |
| 1778085005 | 10.56° C | 72% | 1025.9 hPa | 0 mm | - | - | - |
| 1778084105 | 10.56° C | 72% | 1025.9 hPa | 0 mm | - | - | - |
| 1778080505 | 12.22° C | 70% | 1025.5 hPa | 0 mm | - | - | - |
| 1778068805 | 13.89° C | 81% | 1023.8 hPa | 0 mm | - | - | - |
| 1778067905 | 13.89° C | 81% | 1023.8 hPa | 0 mm | - | - | - |
| 1778064305 | 13.89° C | 83% | 1023 hPa | 0 mm | - | - | - |
| 1778063405 | 13.33° C | 82% | 1022.6 hPa | 0 mm | - | - | - |
| 1778062505 | 13.33° C | 82% | 1022.6 hPa | 0 mm | - | - | - |
| 1778061605 | 13.89° C | 80% | 1022.2 hPa | 0 mm | - | - | - |
| 1778058005 | 15.56° C | 77% | 1021.8 hPa | 0 mm | - | - | - |
| 1778057105 | 15.56° C | 77% | 1021.8 hPa | 0 mm | - | - | - |
| 1778049005 | 20° C | 49% | 1020.6 hPa | 0 mm | - | - | - |
| 1778048105 | 20° C | 49% | 1020.6 hPa | 0 mm | - | - | - |
| 1778044505 | 19.44° C | 50% | 1020.9 hPa | 0 mm | - | - | - |
| 1778043605 | 20° C | 49% | 1021.1 hPa | 0 mm | - | - | - |
| 1778042705 | 20° C | 49% | 1021.1 hPa | 0 mm | - | - | - |
| 1778039105 | 18.89° C | 50% | 1021.7 hPa | 0 mm | - | - | - |
| 1778034605 | 17.78° C | 53% | 1023.1 hPa | 0 mm | - | - | - |
| 1778033706 | 17.78° C | 53% | 1023.1 hPa | 0 mm | - | - | - |
| 1778031905 | 15° C | 74% | 1024 hPa | 0 mm | - | - | - |
* Rain since midnight (hover to see other rain measurements)
** Current wind speed in m/s (hover to see current wind gust speed)